Time;durP1;ratioP1;P1;durP2;ratioP2;P2;SDS_P1;SDS_P2;PMS_P1;PMS_P2;Temp;Humidity;BMP_temperature;BMP_pressure;BME280_temperature;BME280_humidity;BME280_pressure;Samples;Min_cycle;Max_cycle;Signal;HPM_P1;HPM_P2
2023/09/22 00:00:38;;;;;;;9.70;4.80;;;;;;;25.65;42.08;100698.49;103240;1292;65822;-83
2023/09/22 00:03:05;;;;;;;12.20;5.00;;;;;;;25.65;41.82;100705.88;103098;1293;61368;-83
2023/09/22 00:05:31;;;;;;;12.80;5.40;;;;;;;25.65;42.06;100709.27;103239;1294;61799;-83
2023/09/22 00:07:56;;;;;;;12.40;5.90;;;;;;;25.65;42.09;100708.59;103125;1293;61410;-83
2023/09/22 00:10:22;;;;;;;13.60;5.70;;;;;;;25.65;42.14;100715.56;103065;1294;61517;-83
2023/09/22 00:12:47;;;;;;;11.30;5.20;;;;;;;25.65;42.17;100718.26;103293;1294;61420;-83
2023/09/22 00:15:13;;;;;;;10.60;5.00;;;;;;;25.65;42.10;100720.63;103249;1293;61450;-83
2023/09/22 00:17:43;;;;;;;10.60;4.80;;;;;;;25.64;42.14;100721.75;103176;1293;61433;-82
2023/09/22 00:20:12;;;;;;;10.90;4.90;;;;;;;25.65;42.18;100727.65;103138;1295;61430;-83
2023/09/22 00:22:43;;;;;;;11.60;4.90;;;;;;;25.65;42.04;100729.06;103102;1294;65835;-82
2023/09/22 00:25:12;;;;;;;13.30;4.80;;;;;;;25.65;41.97;100722.60;103254;1293;61330;-83
2023/09/22 00:27:38;;;;;;;16.70;5.40;;;;;;;25.65;42.08;100713.95;103076;1293;61399;-83
2023/09/22 00:30:05;;;;;;;11.40;5.00;;;;;;;25.65;42.12;100715.28;103276;1293;61265;-83
2023/09/22 00:32:30;;;;;;;9.00;5.30;;;;;;;25.64;42.26;100720.88;103268;1296;61404;-82
2023/09/22 00:34:56;;;;;;;12.40;5.10;;;;;;;25.65;42.22;100723.38;103282;1294;61494;-83
2023/09/22 00:37:22;;;;;;;16.30;5.40;;;;;;;25.65;42.16;100716.19;103145;1294;62413;-82
2023/09/22 00:39:48;;;;;;;9.90;4.70;;;;;;;25.64;41.99;100706.14;103155;1294;63127;-82
2023/09/22 00:42:14;;;;;;;12.40;4.50;;;;;;;25.64;41.93;100713.34;103156;1295;61303;-82
2023/09/22 00:44:40;;;;;;;11.20;4.90;;;;;;;25.64;41.86;100719.46;103205;1294;62252;-83
2023/09/22 00:47:06;;;;;;;10.10;4.90;;;;;;;25.64;41.95;100700.41;103199;1294;61317;-84
2023/09/22 00:49:32;;;;;;;12.60;4.60;;;;;;;25.63;42.07;100687.34;103100;1293;62204;-83
2023/09/22 00:51:58;;;;;;;11.30;4.70;;;;;;;25.62;42.06;100676.02;103248;1297;61400;-83
2023/09/22 00:54:24;;;;;;;11.10;4.90;;;;;;;25.62;42.04;100673.67;103273;1294;61348;-83
2023/09/22 00:56:49;;;;;;;12.30;5.20;;;;;;;25.62;42.02;100672.95;103163;1294;61488;-83
2023/09/22 00:59:16;;;;;;;11.00;4.50;;;;;;;25.62;42.00;100671.54;103200;1293;62557;-83
2023/09/22 01:01:42;;;;;;;9.80;4.70;;;;;;;25.62;42.11;100671.20;103074;1293;61312;-83
2023/09/22 01:04:08;;;;;;;11.00;4.90;;;;;;;25.62;41.92;100670.77;103163;1295;62213;-83
2023/09/22 01:06:35;;;;;;;8.70;4.50;;;;;;;25.62;42.10;100668.98;103208;1292;61397;-83
2023/09/22 01:09:06;;;;;;;9.10;4.80;;;;;;;25.62;42.04;100665.59;103148;1296;61319;-83
2023/09/22 01:11:36;;;;;;;11.50;4.70;;;;;;;25.62;42.02;100662.19;103140;1292;61390;-83
2023/09/22 01:14:02;;;;;;;14.20;4.90;;;;;;;25.61;42.00;100656.45;103203;1297;64348;-83
2023/09/22 01:16:30;;;;;;;;;;;;;;;25.61;42.12;100651.11;103076;1297;66070;-82
2023/09/22 01:18:57;;;;;;;10.00;4.50;;;;;;;25.58;42.21;100649.66;103218;1295;61545;-82
2023/09/22 01:21:30;;;;;;;9.90;4.30;;;;;;;25.59;42.14;100642.98;103231;1292;61378;-82
2023/09/22 01:23:56;;;;;;;10.80;4.80;;;;;;;25.59;42.20;100635.61;103091;1294;63688;-83
2023/09/22 01:26:22;;;;;;;10.20;4.50;;;;;;;25.59;42.24;100629.09;103210;1296;61354;-83
2023/09/22 01:28:48;;;;;;;9.90;4.50;;;;;;;25.59;42.22;100630.00;103123;1293;61388;-83
2023/09/22 01:31:19;;;;;;;8.00;4.60;;;;;;;25.58;42.27;100626.62;103216;1293;61272;-83
2023/09/22 01:33:45;;;;;;;8.50;4.10;;;;;;;25.59;42.18;100624.94;103260;1296;61497;-83
2023/09/22 01:36:16;;;;;;;8.20;4.30;;;;;;;25.58;42.24;100625.20;103008;1294;66029;-83
2023/09/22 01:38:41;;;;;;;10.90;4.20;;;;;;;25.58;42.44;100633.10;103499;1294;59331;-83
2023/09/22 01:41:07;;;;;;;8.40;4.30;;;;;;;25.59;42.38;100637.56;103077;1294;61467;-83
2023/09/22 01:43:32;;;;;;;7.90;4.00;;;;;;;25.58;42.38;100635.80;103143;1294;61846;-83
2023/09/22 01:45:59;;;;;;;9.50;4.20;;;;;;;25.59;42.45;100637.95;103157;1292;61492;-82
2023/09/22 01:48:25;;;;;;;9.30;4.40;;;;;;;25.58;42.49;100636.73;103242;1296;61381;-83
2023/09/22 01:50:50;;;;;;;8.20;4.00;;;;;;;25.58;42.31;100635.84;103260;1294;62317;-83
2023/09/22 01:53:16;;;;;;;8.20;4.20;;;;;;;25.58;42.62;100641.03;102880;1298;61430;-83
2023/09/22 01:55:42;;;;;;;9.00;4.40;;;;;;;25.58;42.57;100639.11;103229;1293;63962;-83
2023/09/22 01:58:08;;;;;;;7.60;3.90;;;;;;;25.58;42.37;100640.73;103128;1294;61391;-83
2023/09/22 02:00:34;;;;;;;8.20;4.10;;;;;;;25.58;42.55;100641.46;102920;1294;61407;-83
2023/09/22 02:03:00;;;;;;;7.50;3.90;;;;;;;25.58;42.52;100640.02;103090;1294;61427;-83
2023/09/22 02:05:26;;;;;;;8.20;3.70;;;;;;;25.57;42.45;100639.84;103248;1294;61504;-83
2023/09/22 02:07:52;;;;;;;8.10;4.00;;;;;;;25.57;42.50;100638.08;103010;1293;61484;-83
2023/09/22 02:10:18;;;;;;;9.10;3.80;;;;;;;25.57;42.61;100641.17;103178;1294;61338;-83
2023/09/22 02:12:44;;;;;;;7.10;3.70;;;;;;;25.57;42.50;100646.59;103188;1294;61538;-83
2023/09/22 02:15:10;;;;;;;9.70;3.50;;;;;;;25.57;42.50;100653.45;103008;1298;61282;-83
2023/09/22 02:17:39;;;;;;;10.30;3.60;;;;;;;25.56;42.51;100653.64;103050;1294;61378;-83
2023/09/22 02:20:22;;;;;;;7.70;3.80;;;;;;;25.56;42.45;100652.39;103198;1294;65921;-83
2023/09/22 02:22:52;;;;;;;8.30;3.90;;;;;;;25.57;42.34;100657.02;103279;1294;61423;-83
2023/09/22 02:25:19;;;;;;;7.70;3.90;;;;;;;25.56;42.49;100661.95;103106;1293;61356;-83
2023/09/22 02:27:52;;;;;;;7.50;3.30;;;;;;;25.56;42.50;100669.52;103075;1294;63941;-83
2023/09/22 02:30:19;;;;;;;6.10;3.50;;;;;;;25.57;42.49;100678.69;103227;1294;66225;-84
2023/09/22 02:32:49;;;;;;;8.30;3.70;;;;;;;25.57;42.26;100682.48;103161;1293;62277;-83
2023/09/22 02:35:21;;;;;;;7.30;3.40;;;;;;;25.57;42.55;100682.07;102868;1295;61504;-83
2023/09/22 02:37:52;;;;;;;6.50;3.60;;;;;;;25.57;42.50;100683.48;103241;1294;65072;-83
2023/09/22 02:40:17;;;;;;;5.70;3.50;;;;;;;25.57;42.37;100681.90;103200;1295;61533;-83
2023/09/22 02:42:43;;;;;;;7.40;3.50;;;;;;;25.56;42.48;100674.76;103163;1293;61849;-83
2023/09/22 02:45:09;;;;;;;6.80;3.50;;;;;;;25.56;42.46;100675.82;103151;1293;61463;-83
2023/09/22 02:47:40;;;;;;;7.80;3.70;;;;;;;25.56;42.45;100674.90;103250;1293;61411;-84
2023/09/22 02:50:10;;;;;;;7.50;3.80;;;;;;;25.56;42.42;100672.79;103160;1294;65731;-84
2023/09/22 02:52:39;;;;;;;5.50;3.20;;;;;;;25.56;42.38;100672.83;103090;1292;61299;-83
2023/09/22 02:55:08;;;;;;;9.30;3.70;;;;;;;25.56;42.25;100678.05;103130;1292;61387;-84
2023/09/22 02:57:35;;;;;;;7.70;3.70;;;;;;;25.55;42.24;100678.63;103258;1293;63662;-83
2023/09/22 03:00:11;;;;;;;5.60;3.30;;;;;;;25.55;42.21;100683.66;103152;1293;65893;-83
2023/09/22 03:02:40;;;;;;;7.60;3.40;;;;;;;25.55;42.28;100689.46;103232;1293;61415;-83
2023/09/22 03:05:08;;;;;;;8.00;3.50;;;;;;;25.55;42.27;100689.67;99266;1293;5406967;-82
2023/09/22 03:07:33;;;;;;;7.00;3.40;;;;;;;25.54;42.27;100688.10;103223;1294;62112;-83
2023/09/22 03:09:59;;;;;;;6.20;3.60;;;;;;;25.54;42.28;100691.48;103160;1294;61772;-81
2023/09/22 03:12:25;;;;;;;6.00;3.80;;;;;;;25.54;42.24;100690.40;103224;1292;61973;-82
2023/09/22 03:14:52;;;;;;;6.80;3.60;;;;;;;25.55;42.37;100685.91;103104;1293;61296;-81
2023/09/22 03:17:18;;;;;;;8.10;3.80;;;;;;;25.54;42.29;100679.79;103172;1295;61385;-82
2023/09/22 03:19:44;;;;;;;9.60;3.80;;;;;;;25.54;42.39;100683.23;103043;1292;61487;-82
2023/09/22 03:22:09;;;;;;;8.80;3.80;;;;;;;25.53;42.45;100684.38;103103;1294;61390;-82
2023/09/22 03:24:35;;;;;;;9.20;4.10;;;;;;;25.53;42.40;100690.88;103198;1294;61429;-82
2023/09/22 03:27:01;;;;;;;10.80;4.30;;;;;;;25.52;42.45;100692.95;103035;1293;62058;-83
2023/09/22 03:29:27;;;;;;;14.00;5.40;;;;;;;25.51;42.35;100694.86;103260;1294;62045;-83
2023/09/22 03:31:52;;;;;;;18.10;5.90;;;;;;;25.51;42.36;100697.77;103119;1294;73467;-82
2023/09/22 03:34:18;;;;;;;20.50;6.70;;;;;;;25.50;42.35;100697.48;103084;1294;61861;-84
2023/09/22 03:36:44;;;;;;;23.60;6.60;;;;;;;25.50;42.34;100700.20;103176;1295;61394;-83
2023/09/22 03:39:12;;;;;;;23.50;7.10;;;;;;;25.51;42.43;100708.23;103026;1293;61431;-81
2023/09/22 03:41:42;;;;;;;16.70;5.80;;;;;;;25.50;42.35;100706.02;103054;1293;63682;-82
2023/09/22 03:44:08;;;;;;;;;;;;;;;25.50;42.44;100705.77;103061;1294;66056;-82
2023/09/22 03:46:34;;;;;;;12.90;5.60;;;;;;;25.48;42.36;100710.52;102979;1294;61407;-81
2023/09/22 03:49:00;;;;;;;13.60;4.80;;;;;;;25.47;42.44;100710.43;103064;1295;61459;-82
2023/09/22 03:51:26;;;;;;;12.80;4.50;;;;;;;25.47;42.56;100713.64;103124;1294;61410;-82
2023/09/22 03:53:52;;;;;;;12.00;4.80;;;;;;;25.46;42.47;100716.40;103025;1294;61895;-83
2023/09/22 03:56:19;;;;;;;7.60;4.40;;;;;;;25.45;42.57;100713.07;103042;1294;61507;-82
2023/09/22 03:58:45;;;;;;;9.30;4.00;;;;;;;25.45;42.37;100712.52;103237;1294;61407;-82
2023/09/22 04:01:11;;;;;;;8.60;3.90;;;;;;;25.45;42.41;100709.09;102982;1298;61411;-81
2023/09/22 04:03:36;;;;;;;9.40;4.20;;;;;;;25.45;42.39;100710.94;103048;1294;61345;-82
2023/09/22 04:06:04;;;;;;;8.70;4.00;;;;;;;25.44;42.31;100710.80;103223;1296;65874;-82
2023/09/22 04:08:32;;;;;;;7.30;3.60;;;;;;;25.44;42.46;100713.71;103209;1292;61376;-82
2023/09/22 04:10:57;;;;;;;7.80;4.10;;;;;;;25.43;42.32;100717.59;103272;1294;61515;-82
2023/09/22 04:13:27;;;;;;;9.90;4.30;;;;;;;25.43;42.28;100722.30;103250;1294;61386;-82
2023/09/22 04:16:04;;;;;;;11.10;5.10;;;;;;;25.42;42.52;100720.89;103506;1292;65819;-83
2023/09/22 04:18:30;;;;;;;8.80;4.70;;;;;;;25.41;42.55;100720.23;103150;1291;61429;-82
2023/09/22 04:20:57;;;;;;;8.60;5.20;;;;;;;25.41;42.64;100719.70;103258;1294;61366;-81
2023/09/22 04:23:27;;;;;;;8.90;4.90;;;;;;;25.41;42.47;100722.48;103065;1294;63895;-82
2023/09/22 04:25:54;;;;;;;10.40;4.90;;;;;;;25.41;42.52;100724.48;103169;1297;65754;-82
2023/09/22 04:28:23;;;;;;;10.30;5.10;;;;;;;25.40;42.47;100719.48;103048;1293;62029;-83
2023/09/22 04:30:50;;;;;;;7.70;4.90;;;;;;;25.41;42.40;100719.60;103108;1295;61411;-83
2023/09/22 04:33:15;;;;;;;10.60;5.20;;;;;;;25.41;42.39;100716.91;102963;1294;61384;-83
2023/09/22 04:35:41;;;;;;;9.40;5.00;;;;;;;25.40;42.47;100716.81;103038;1294;61393;-83
2023/09/22 04:38:08;;;;;;;10.90;4.70;;;;;;;25.39;42.38;100720.80;103077;1292;61487;-83
2023/09/22 04:40:36;;;;;;;15.10;5.40;;;;;;;25.39;42.44;100727.82;103350;1292;61299;-82
2023/09/22 04:43:05;;;;;;;13.00;5.40;;;;;;;25.39;42.60;100724.41;103375;1296;63956;-83
2023/09/22 04:45:30;;;;;;;8.80;5.00;;;;;;;25.39;42.58;100723.36;103537;1293;65798;-82
2023/09/22 04:47:57;;;;;;;11.30;4.80;;;;;;;25.38;42.52;100717.48;103289;1293;61406;-83
2023/09/22 04:50:23;;;;;;;12.20;4.70;;;;;;;25.38;42.68;100716.40;103884;1292;61270;-83
2023/09/22 04:52:49;;;;;;;9.10;5.30;;;;;;;25.37;42.76;100722.44;104013;1293;62129;-83
2023/09/22 04:55:19;;;;;;;10.90;5.20;;;;;;;25.35;42.61;100726.59;104207;1294;61375;-80
2023/09/22 04:57:45;;;;;;;18.90;5.60;;;;;;;25.31;42.68;100724.95;103487;1292;61370;-80
2023/09/22 05:00:15;;;;;;;16.60;5.70;;;;;;;25.30;42.82;100727.55;103734;1294;61412;-80
2023/09/22 05:02:43;;;;;;;17.30;5.80;;;;;;;25.29;42.92;100719.74;104495;1297;63731;-81
2023/09/22 05:05:09;;;;;;;16.00;5.90;;;;;;;25.28;42.87;100720.55;104498;1292;74314;-81
2023/09/22 05:07:35;;;;;;;21.50;5.90;;;;;;;25.25;43.10;100715.71;103903;1293;60098;-81
2023/09/22 05:10:00;;;;;;;15.90;6.00;;;;;;;25.26;42.93;100717.08;104685;1294;60116;-81
2023/09/22 05:12:26;;;;;;;17.10;5.60;;;;;;;25.27;43.12;100716.63;104361;1292;61491;-81
2023/09/22 05:14:55;;;;;;;13.10;5.70;;;;;;;25.25;43.08;100716.27;104086;1295;61334;-80
2023/09/22 05:17:22;;;;;;;12.80;5.50;;;;;;;25.21;43.15;100720.98;104360;1293;59347;-81
2023/09/22 05:19:48;;;;;;;12.00;5.60;;;;;;;25.16;43.27;100728.30;105349;1291;59505;-81
2023/09/22 05:22:14;;;;;;;11.10;5.20;;;;;;;25.11;43.30;100731.40;103932;1297;61497;-81
2023/09/22 05:24:39;;;;;;;16.00;5.10;;;;;;;25.07;43.28;100733.23;103927;1293;62331;-83
2023/09/22 05:27:05;;;;;;;9.80;5.30;;;;;;;25.03;43.25;100732.66;103854;1294;62895;-82
2023/09/22 05:29:30;;;;;;;12.60;5.50;;;;;;;25.02;43.33;100733.68;103975;1293;61253;-82
2023/09/22 05:31:56;;;;;;;18.30;5.60;;;;;;;24.98;43.35;100738.89;104006;1294;61419;-82
2023/09/22 05:34:22;;;;;;;13.00;5.00;;;;;;;24.94;43.43;100744.66;103956;1294;61326;-82
2023/09/22 05:36:49;;;;;;;13.50;5.20;;;;;;;24.92;43.42;100750.02;104098;1294;61285;-82
2023/09/22 05:39:15;;;;;;;11.30;5.00;;;;;;;24.90;43.55;100756.15;103991;1291;61351;-82
2023/09/22 05:41:41;;;;;;;9.30;5.30;;;;;;;24.89;43.44;100758.97;103916;1292;61347;-82
2023/09/22 05:44:07;;;;;;;9.00;5.10;;;;;;;24.90;43.57;100763.92;103963;1295;61868;-81
2023/09/22 05:46:35;;;;;;;11.40;5.10;;;;;;;24.89;43.66;100755.52;104209;1291;61978;-81
2023/09/22 05:49:00;;;;;;;7.70;4.50;;;;;;;24.88;43.61;100754.49;104067;1292;61489;-81
2023/09/22 05:51:27;;;;;;;13.80;5.20;;;;;;;24.90;43.66;100752.71;104279;1295;61336;-81
2023/09/22 05:53:52;;;;;;;11.70;6.00;;;;;;;24.90;43.50;100753.39;104412;1292;59342;-81
2023/09/22 05:56:18;;;;;;;16.10;5.20;;;;;;;24.86;43.54;100757.10;104632;1296;61348;-81
2023/09/22 05:58:44;;;;;;;14.40;5.10;;;;;;;24.79;43.66;100762.52;104427;1292;61369;-81
2023/09/22 06:01:11;;;;;;;15.70;5.90;;;;;;;24.78;43.82;100765.27;104504;1293;61341;-82
2023/09/22 06:03:37;;;;;;;13.50;5.60;;;;;;;24.79;43.86;100765.56;105734;1291;60216;-82
2023/09/22 06:06:13;;;;;;;20.10;5.80;;;;;;;24.78;44.07;100770.33;104287;1294;63942;-82
2023/09/22 06:08:39;;;;;;;18.10;5.60;;;;;;;24.76;44.08;100769.40;104019;1292;66103;-82
2023/09/22 06:11:06;;;;;;;11.60;5.50;;;;;;;24.79;44.02;100763.47;104227;1292;61329;-81
2023/09/22 06:13:32;;;;;;;11.80;5.60;;;;;;;24.83;43.99;100762.40;104253;1294;61486;-82
2023/09/22 06:15:58;;;;;;;13.10;5.90;;;;;;;24.85;43.95;100759.14;103980;1297;61421;-81
2023/09/22 06:18:24;;;;;;;13.30;5.40;;;;;;;24.86;44.01;100758.80;103994;1293;61414;-81
2023/09/22 06:20:58;;;;;;;17.30;5.90;;;;;;;24.88;43.86;100757.19;104008;1293;61391;-81
2023/09/22 06:23:24;;;;;;;15.00;6.20;;;;;;;24.90;43.83;100763.17;104185;1294;61381;-82
2023/09/22 06:25:56;;;;;;;21.60;7.30;;;;;;;24.90;43.76;100768.01;104174;1291;61808;-82
2023/09/22 06:28:22;;;;;;;18.70;6.60;;;;;;;24.87;43.72;100768.98;104103;1297;65285;-82
2023/09/22 06:30:47;;;;;;;17.10;6.50;;;;;;;24.83;43.67;100762.56;104278;1292;61395;-82
2023/09/22 06:33:16;;;;;;;17.20;7.00;;;;;;;24.82;43.85;100763.36;104061;1294;61268;-82
2023/09/22 06:35:46;;;;;;;13.90;6.30;;;;;;;24.81;43.94;100767.92;104136;1294;63600;-82
2023/09/22 06:38:11;;;;;;;;;;;;;;;24.85;43.83;100769.73;103939;1294;65874;-81
2023/09/22 06:40:37;;;;;;;15.30;6.70;;;;;;;24.88;43.91;100772.16;104166;1292;61308;-81
2023/09/22 06:43:08;;;;;;;14.90;7.80;;;;;;;24.89;43.78;100769.39;104019;1292;61479;-81
2023/09/22 06:45:37;;;;;;;15.50;7.10;;;;;;;24.87;43.81;100769.73;104053;1292;73644;-81
2023/09/22 06:48:05;;;;;;;14.50;6.60;;;;;;;24.86;43.95;100770.35;104058;1292;74373;-82
2023/09/22 06:50:35;;;;;;;17.60;7.70;;;;;;;24.90;43.86;100777.18;104136;1293;61323;-81
2023/09/22 06:53:00;;;;;;;21.40;7.80;;;;;;;24.87;43.90;100778.17;104523;1293;61208;-82
2023/09/22 06:55:26;;;;;;;16.10;8.40;;;;;;;24.85;44.07;100784.83;104543;1291;61625;-82
2023/09/22 06:57:52;;;;;;;20.60;7.90;;;;;;;24.86;44.13;100784.58;104428;1292;61317;-82
2023/09/22 07:00:18;;;;;;;18.00;7.40;;;;;;;24.87;44.06;100785.73;104575;1293;61167;-82
2023/09/22 07:02:47;;;;;;;19.70;8.70;;;;;;;24.91;44.20;100786.84;104899;1294;61218;-82
2023/09/22 07:05:16;;;;;;;18.70;8.70;;;;;;;24.93;44.29;100789.39;104579;1294;61398;-82
2023/09/22 07:07:42;;;;;;;13.90;8.30;;;;;;;24.92;44.42;100788.50;104261;1291;74498;-81
2023/09/22 07:10:09;;;;;;;13.50;7.80;;;;;;;24.96;44.33;100792.02;104277;1294;61846;-84
2023/09/22 07:12:38;;;;;;;17.60;8.60;;;;;;;25.00;44.27;100796.47;104268;1295;59347;-82
2023/09/22 07:15:05;;;;;;;24.70;9.90;;;;;;;24.99;44.27;100799.68;104646;1291;63819;-82
2023/09/22 07:17:33;;;;;;;16.60;8.10;;;;;;;24.98;44.34;100801.02;104461;1297;65819;-81
2023/09/22 07:20:01;;;;;;;13.80;8.40;;;;;;;25.00;44.24;100801.90;104341;1294;61386;-82
2023/09/22 07:22:35;;;;;;;22.90;8.90;;;;;;;25.03;44.33;100803.59;104476;1292;61346;-82
2023/09/22 07:25:01;;;;;;;14.80;7.10;;;;;;;25.07;44.29;100805.61;104212;1292;63712;-82
2023/09/22 07:27:36;;;;;;;17.40;7.00;;;;;;;25.11;44.18;100804.52;104150;1294;61341;-82
2023/09/22 07:30:09;;;;;;;17.50;7.60;;;;;;;25.16;44.10;100805.73;104340;1293;61425;-81
2023/09/22 07:32:35;;;;;;;21.50;7.10;;;;;;;25.20;44.00;100805.70;104583;1294;61271;-82
2023/09/22 07:35:01;;;;;;;13.10;7.30;;;;;;;25.24;44.23;100805.38;104505;1292;61310;-82
2023/09/22 07:37:31;;;;;;;14.90;7.20;;;;;;;25.28;43.98;100809.53;104606;1293;65783;-82
2023/09/22 07:39:56;;;;;;;17.90;7.10;;;;;;;25.30;43.96;100806.23;104473;1294;61356;-81
2023/09/22 07:42:22;;;;;;;13.30;6.80;;;;;;;25.32;44.00;100803.78;104473;1293;59327;-82
2023/09/22 07:44:50;;;;;;;17.80;7.20;;;;;;;25.35;43.97;100804.60;104476;1297;61627;-82
2023/09/22 07:47:15;;;;;;;16.40;7.20;;;;;;;25.37;43.89;100798.30;104337;1294;61410;-82
2023/09/22 07:49:42;;;;;;;13.90;7.20;;;;;;;25.39;43.97;100798.27;104103;1294;61304;-82
2023/09/22 07:52:10;;;;;;;15.30;7.20;;;;;;;25.40;43.88;100798.58;104502;1294;61339;-81
2023/09/22 07:54:36;;;;;;;17.00;7.20;;;;;;;25.41;43.97;100800.09;104941;1294;61255;-86
2023/09/22 07:57:02;;;;;;;20.30;7.00;;;;;;;25.42;44.04;100802.68;104646;1295;61382;-82
2023/09/22 07:59:31;;;;;;;21.30;8.10;;;;;;;25.44;44.10;100806.55;104236;1292;61341;-83
2023/09/22 08:02:02;;;;;;;26.60;7.30;;;;;;;25.44;44.05;100804.36;104543;1294;60216;-82
2023/09/22 08:04:28;;;;;;;25.10;7.90;;;;;;;25.44;44.30;100801.59;104582;1293;64602;-82
2023/09/22 08:06:54;;;;;;;21.90;7.90;;;;;;;25.45;44.19;100800.99;104578;1295;65850;-81
2023/09/22 08:09:21;;;;;;;18.40;7.10;;;;;;;25.46;44.04;100800.73;104504;1293;61417;-84
2023/09/22 08:11:47;;;;;;;15.40;6.10;;;;;;;25.47;44.12;100807.14;104437;1293;61232;-81
2023/09/22 08:14:14;;;;;;;14.20;6.60;;;;;;;25.48;44.07;100809.92;104271;1295;61402;-82
2023/09/22 08:16:40;;;;;;;18.30;7.00;;;;;;;25.49;43.97;100813.79;104330;1294;61289;-82
2023/09/22 08:19:10;;;;;;;19.70;7.20;;;;;;;25.49;43.91;100813.11;104337;1293;61451;-82
2023/09/22 08:21:37;;;;;;;14.20;6.80;;;;;;;25.46;43.97;100809.93;104592;1293;61406;-82
2023/09/22 08:24:04;;;;;;;16.10;6.80;;;;;;;25.43;43.99;100802.25;104457;1297;63804;-82
2023/09/22 08:26:31;;;;;;;16.70;6.80;;;;;;;25.43;43.96;100799.01;104178;1298;65992;-82
2023/09/22 08:28:57;;;;;;;20.10;7.20;;;;;;;25.44;44.07;100796.19;104402;1295;61291;-81
2023/09/22 08:31:25;;;;;;;15.50;6.40;;;;;;;25.46;44.11;100793.91;104276;1298;61505;-81
2023/09/22 08:33:54;;;;;;;20.10;7.30;;;;;;;25.46;44.22;100786.32;104415;1291;64241;-81
2023/09/22 08:36:19;;;;;;;20.70;7.40;;;;;;;25.46;44.16;100790.29;104805;1292;61781;-81
2023/09/22 08:38:46;;;;;;;20.90;7.20;;;;;;;25.43;44.20;100786.41;104535;1292;61410;-81
2023/09/22 08:41:12;;;;;;;23.60;7.40;;;;;;;25.42;44.21;100788.08;104373;1300;61308;-82
2023/09/22 08:43:37;;;;;;;20.90;7.00;;;;;;;25.42;44.10;100788.67;104662;1297;61329;-83
2023/09/22 08:46:03;;;;;;;15.60;6.30;;;;;;;25.42;44.04;100785.36;104817;1293;61372;-82
2023/09/22 08:48:29;;;;;;;24.80;6.90;;;;;;;25.45;44.14;100783.90;104905;1292;61115;-82
2023/09/22 08:50:55;;;;;;;26.60;7.20;;;;;;;25.46;44.11;100775.66;105100;1293;61418;-81
2023/09/22 08:53:21;;;;;;;22.80;7.40;;;;;;;25.48;44.26;100768.84;105134;1292;61412;-80
2023/09/22 08:55:50;;;;;;;24.70;7.80;;;;;;;25.53;44.38;100771.60;104931;1294;59704;-81
2023/09/22 08:58:18;;;;;;;39.20;7.70;;;;;;;25.59;44.62;100777.56;104958;1294;65753;-81
2023/09/22 09:00:51;;;;;;;23.00;7.00;;;;;;;25.64;44.74;100773.55;104543;1294;61132;-81
2023/09/22 09:03:18;;;;;;;25.90;7.80;;;;;;;25.67;44.96;100767.10;104451;1298;60016;-81
2023/09/22 09:05:44;;;;;;;28.90;7.80;;;;;;;25.71;45.05;100767.69;104706;1294;64067;-82
2023/09/22 09:08:13;;;;;;;20.70;6.60;;;;;;;25.74;45.27;100765.02;104801;1296;61352;-81
2023/09/22 09:10:41;;;;;;;24.60;7.70;;;;;;;25.76;45.00;100763.94;104500;1294;60681;-80
2023/09/22 09:13:07;;;;;;;23.30;7.40;;;;;;;25.76;45.01;100763.20;104904;1292;59387;-82
2023/09/22 09:15:45;;;;;;;25.60;7.40;;;;;;;25.79;45.07;100761.89;105033;1294;61146;-81
2023/09/22 09:18:13;;;;;;;18.00;7.00;;;;;;;25.80;45.06;100764.29;104811;1295;66860;-81
2023/09/22 09:20:42;;;;;;;14.50;6.70;;;;;;;25.81;44.98;100764.40;104698;1294;61293;-81
2023/09/22 09:23:12;;;;;;;21.20;6.90;;;;;;;25.82;44.74;100761.95;104422;1293;61286;-81
2023/09/22 09:25:52;;;;;;;28.10;7.30;;;;;;;25.84;44.79;100762.17;104593;1292;64162;-82
2023/09/22 09:28:17;;;;;;;23.50;7.00;;;;;;;25.86;44.82;100757.85;104104;1293;65850;-81
2023/09/22 09:30:51;;;;;;;17.50;7.50;;;;;;;25.88;44.72;100756.95;104315;1294;62916;-81
2023/09/22 09:33:32;;;;;;;17.20;7.20;;;;;;;25.89;44.62;100761.16;105936;1291;59154;-82
2023/09/22 09:35:57;;;;;;;15.30;6.80;;;;;;;25.91;44.78;100757.35;104251;1291;64790;-82
2023/09/22 09:38:27;;;;;;;16.60;7.20;;;;;;;25.92;44.79;100757.20;104219;1294;61411;-81
2023/09/22 09:40:54;;;;;;;15.40;7.60;;;;;;;25.94;44.70;100757.60;103960;1295;61736;-81
2023/09/22 09:43:20;;;;;;;17.20;7.90;;;;;;;25.96;44.77;100746.79;104072;1292;61648;-81
2023/09/22 09:45:56;;;;;;;12.60;7.50;;;;;;;25.97;44.52;100741.81;105982;1293;63860;-81
2023/09/22 09:48:22;;;;;;;17.40;8.40;;;;;;;25.98;44.49;100742.81;105897;1296;65721;-81
2023/09/22 09:50:53;;;;;;;20.90;7.80;;;;;;;25.99;44.36;100742.73;104000;1293;61354;-81
2023/09/22 09:53:28;;;;;;;17.50;7.90;;;;;;;25.99;44.42;100741.08;104843;1292;61311;-81
2023/09/22 09:55:59;;;;;;;14.30;7.60;;;;;;;25.99;44.42;100737.50;104312;1296;64284;-82
2023/09/22 09:58:33;;;;;;;19.30;8.30;;;;;;;26.01;44.33;100740.22;104148;1296;65760;-82
2023/09/22 10:01:00;;;;;;;18.60;8.20;;;;;;;26.02;44.39;100741.39;104325;1292;61105;-82
2023/09/22 10:03:27;;;;;;;30.90;7.80;;;;;;;26.04;44.34;100740.52;104711;1294;61237;-82
2023/09/22 10:05:55;;;;;;;18.40;7.90;;;;;;;26.05;44.44;100734.98;104623;1293;64935;-82
2023/09/22 10:08:25;;;;;;;23.50;8.40;;;;;;;26.06;44.48;100730.74;104570;1292;65928;-82
2023/09/22 10:11:11;;;;;;;34.10;8.50;;;;;;;26.06;44.30;100728.38;104529;1292;61276;-82
2023/09/22 10:13:37;;;;;;;19.20;8.50;;;;;;;26.06;44.08;100724.79;104923;1292;60012;-83
2023/09/22 10:16:04;;;;;;;23.50;8.50;;;;;;;26.07;44.09;100725.64;104593;1298;61312;-81
2023/09/22 10:18:47;;;;;;;18.20;8.20;;;;;;;26.07;44.10;100728.33;104499;1292;64887;-82
2023/09/22 10:21:31;;;;;;;18.80;8.40;;;;;;;26.07;44.19;100730.83;104578;1292;63491;-82
2023/09/22 10:24:17;;;;;;;15.20;7.80;;;;;;;26.08;44.12;100731.45;104296;1293;61360;-81
2023/09/22 10:27:13;;;;;;;21.80;8.10;;;;;;;26.09;44.33;100734.23;104005;1294;64787;-82
2023/09/22 10:29:51;;;;;;;19.70;8.50;;;;;;;26.10;44.29;100732.54;103946;1294;65842;-82
2023/09/22 10:32:21;;;;;;;18.60;8.10;;;;;;;26.11;44.34;100727.40;104253;1293;61396;-81
2023/09/22 10:35:05;;;;;;;16.10;8.30;;;;;;;26.11;44.39;100722.33;104384;1292;61347;-82
2023/09/22 10:37:33;;;;;;;17.40;8.10;;;;;;;26.12;44.35;100721.56;104421;1292;63821;-82
2023/09/22 10:40:09;;;;;;;14.10;6.90;;;;;;;26.14;44.60;100714.90;104068;1292;65991;-82
2023/09/22 10:42:42;;;;;;;18.90;6.80;;;;;;;26.14;44.45;100712.27;104184;1297;61342;-82
2023/09/22 10:45:09;;;;;;;18.00;7.90;;;;;;;26.15;44.16;100713.64;104331;1296;58628;-82
2023/09/22 10:47:45;;;;;;;19.10;7.60;;;;;;;26.15;43.99;100713.16;104531;1292;61222;-82
2023/09/22 10:50:26;;;;;;;13.00;6.80;;;;;;;26.14;44.14;100708.92;104538;1293;65732;-82
2023/09/22 10:53:02;;;;;;;19.70;7.80;;;;;;;26.15;44.25;100715.02;104815;1292;60410;-81
2023/09/22 10:55:42;;;;;;;21.10;7.30;;;;;;;26.15;44.21;100710.63;104431;1292;61258;-82
2023/09/22 10:58:09;;;;;;;15.40;7.20;;;;;;;26.15;44.45;100705.18;104779;1296;63953;-82
2023/09/22 11:00:38;;;;;;;16.00;7.00;;;;;;;26.16;44.38;100703.14;104894;1292;65876;-83
2023/09/22 11:03:11;;;;;;;13.80;6.50;;;;;;;26.18;44.57;100701.82;105097;1293;59969;-83
2023/09/22 11:05:41;;;;;;;22.00;7.20;;;;;;;26.20;44.70;100696.73;105025;1293;58908;-83
2023/09/22 11:08:12;;;;;;;28.10;7.50;;;;;;;26.23;44.87;100697.23;105065;1297;63852;-82
2023/09/22 11:10:37;;;;;;;16.60;6.40;;;;;;;26.26;44.67;100697.35;104824;1296;66131;-81
2023/09/22 11:13:03;;;;;;;21.70;6.80;;;;;;;26.26;44.54;100694.23;104730;1293;59353;-82
2023/09/22 11:15:29;;;;;;;21.10;7.80;;;;;;;26.26;44.39;100693.69;104884;1292;61264;-81